Time;durP1;ratioP1;P1;durP2;ratioP2;P2;SDS_P1;SDS_P2;PMS_P1;PMS_P2;Temp;Humidity;BMP_temperature;BMP_pressure;BME280_temperature;BME280_humidity;BME280_pressure;Samples;Min_cycle;Max_cycle;Signal;HPM_P1;HPM_P2
2023/06/11 00:01:58;;;;;;;11.23;4.75;;;20.80;91.10;;;;;;5056859;28;20386;-70
2023/06/11 00:04:25;;;;;;;9.38;4.70;;;20.80;91.30;;;;;;5073412;28;20066;-70
2023/06/11 00:06:56;;;;;;;11.57;4.80;;;20.80;90.80;;;;;;5073331;28;20556;-70
2023/06/11 00:09:25;;;;;;;8.13;4.00;;;20.80;90.60;;;;;;5072952;28;20040;-70
2023/06/11 00:11:53;;;;;;;10.63;4.30;;;20.80;90.00;;;;;;5073291;28;20059;-70
2023/06/11 00:14:19;;;;;;;10.55;5.03;;;20.80;89.50;;;;;;5073081;28;20033;-70
2023/06/11 00:16:45;;;;;;;9.52;4.10;;;20.80;89.00;;;;;;5056326;28;20072;-70
2023/06/11 00:19:11;;;;;;;11.48;5.28;;;20.80;88.60;;;;;;5072957;28;20517;-70
2023/06/11 00:21:43;;;;;;;13.68;4.68;;;20.90;88.00;;;;;;5072868;28;20044;-70
2023/06/11 00:24:11;;;;;;;10.18;4.95;;;20.80;87.50;;;;;;5072942;28;20040;-70
2023/06/11 00:26:38;;;;;;;8.77;5.05;;;20.90;87.20;;;;;;5072986;28;20052;-70
2023/06/11 00:29:05;;;;;;;10.10;4.55;;;20.90;86.90;;;;;;5072801;28;20041;-70
2023/06/11 00:31:30;;;;;;;10.55;5.20;;;20.90;86.60;;;;;;5072896;28;20036;-70
2023/06/11 00:33:56;;;;;;;8.65;4.70;;;20.90;86.20;;;;;;5072670;28;20047;-70
2023/06/11 00:36:26;;;;;;;9.10;4.90;;;20.90;86.30;;;;;;5056327;28;20040;-70
2023/06/11 00:38:53;;;;;;;5.90;4.68;;;20.80;85.10;;;;;;5072895;28;20519;-70
2023/06/11 00:41:18;;;;;;;6.28;4.50;;;20.80;84.60;;;;;;5072482;28;20119;-70
2023/06/11 00:43:44;;;;;;;7.43;4.60;;;20.90;84.20;;;;;;5055913;28;20068;-70
2023/06/11 00:46:10;;;;;;;11.07;4.47;;;20.80;83.70;;;;;;5072392;28;20093;-70
2023/06/11 00:48:37;;;;;;;8.02;4.85;;;20.80;83.20;;;;;;5072409;28;20075;-70
2023/06/11 00:51:03;;;;;;;7.30;4.65;;;20.90;83.00;;;;;;5072606;28;20036;-70
2023/06/11 00:53:28;;;;;;;11.05;4.60;;;20.90;82.40;;;;;;5072267;28;20492;-70
2023/06/11 00:55:54;;;;;;;7.13;4.57;;;20.90;81.80;;;;;;5055722;28;20033;-70
2023/06/11 00:58:21;;;;;;;7.53;4.50;;;20.80;81.40;;;;;;5072253;28;20037;-70
2023/06/11 01:00:52;;;;;;;7.15;4.75;;;20.90;81.30;;;;;;5072467;28;20056;-71
2023/06/11 01:03:26;;;;;;;8.15;4.80;;;20.90;81.00;;;;;;5055340;28;20036;-71
2023/06/11 01:06:18;;;;;;;10.77;4.75;;;20.90;80.70;;;;;;5073282;28;20383;-71
2023/06/11 01:08:45;;;;;;;9.32;4.70;;;20.90;80.20;;;;;;5072118;28;20409;-71
2023/06/11 01:11:23;;;;;;;9.68;4.90;;;20.90;80.40;;;;;;5072055;28;20040;-71
2023/06/11 01:13:49;;;;;;;9.13;4.80;;;20.90;80.00;;;;;;5072060;28;20123;-71
2023/06/11 01:16:35;;;;;;;5.78;4.70;;;20.80;80.20;;;;;;5072294;28;20037;-71
2023/06/11 01:19:14;;;;;;;10.02;5.40;;;20.90;79.60;;;;;;5072012;28;20044;-71
2023/06/11 01:21:50;;;;;;;7.55;4.60;;;20.80;79.40;;;;;;5071076;28;20047;-71
2023/06/11 01:24:21;;;;;;;13.98;4.80;;;20.80;79.40;;;;;;5071976;28;20043;-71
2023/06/11 01:27:05;;;;;;;5.97;4.60;;;20.80;79.40;;;;;;5055154;28;20051;-71
2023/06/11 01:29:35;;;;;;;5.53;4.68;;;20.80;78.90;;;;;;5071947;28;20040;-71
2023/06/11 01:32:04;;;;;;;10.57;5.20;;;20.70;78.90;;;;;;5071990;28;20050;-71
2023/06/11 01:34:31;;;;;;;8.82;4.97;;;20.80;79.00;;;;;;5071831;28;20090;-71
2023/06/11 01:36:57;;;;;;;7.47;4.93;;;20.70;79.00;;;;;;5071806;28;20055;-71
2023/06/11 01:39:23;;;;;;;7.60;4.75;;;20.70;79.00;;;;;;5055052;28;20044;-71
2023/06/11 01:41:49;;;;;;;8.27;5.00;;;20.70;79.00;;;;;;5071656;28;20049;-71
2023/06/11 01:44:14;;;;;;;6.72;5.07;;;20.70;78.90;;;;;;5054971;28;20048;-71
2023/06/11 01:46:40;;;;;;;5.97;4.93;;;20.60;78.90;;;;;;5071881;28;20041;-71
2023/06/11 01:49:05;;;;;;;9.13;4.82;;;20.60;78.80;;;;;;5071689;28;20044;-71
2023/06/11 01:51:31;;;;;;;6.38;4.70;;;20.60;78.80;;;;;;5055187;28;20032;-71
2023/06/11 01:53:57;;;;;;;8.48;5.15;;;20.60;78.80;;;;;;5071692;28;20526;-71
2023/06/11 01:56:22;;;;;;;5.85;4.47;;;20.60;78.80;;;;;;5071586;28;20048;-71
2023/06/11 01:58:48;;;;;;;7.25;5.38;;;20.60;78.70;;;;;;5073370;28;20055;-71
2023/06/11 02:01:14;;;;;;;8.35;4.88;;;20.60;78.60;;;;;;5071685;28;20072;-71
2023/06/11 02:03:40;;;;;;;9.20;4.85;;;20.50;78.50;;;;;;5071450;28;20051;-71
2023/06/11 02:06:07;;;;;;;5.53;4.72;;;20.50;78.40;;;;;;5071421;28;20039;-71
2023/06/11 02:08:32;;;;;;;7.95;5.43;;;20.50;78.50;;;;;;5071730;28;20098;-71
2023/06/11 02:10:58;;;;;;;7.82;4.80;;;20.50;78.50;;;;;;5071720;28;20513;-71
2023/06/11 02:13:30;;;;;;;6.35;5.18;;;20.50;78.50;;;;;;5054681;28;20045;-71
2023/06/11 02:15:57;;;;;;;5.93;5.25;;;20.40;78.40;;;;;;5071444;28;20040;-71
2023/06/11 02:18:22;;;;;;;8.63;5.38;;;20.50;78.50;;;;;;5071639;28;20045;-71
2023/06/11 02:20:48;;;;;;;6.03;4.90;;;20.40;78.60;;;;;;5071687;28;20397;-71
2023/06/11 02:23:14;;;;;;;7.25;5.40;;;20.40;78.60;;;;;;5071269;28;20546;-71
2023/06/11 02:25:39;;;;;;;8.93;5.97;;;20.40;78.60;;;;;;5071328;28;20093;-71
2023/06/11 02:28:05;;;;;;;6.97;5.00;;;20.40;78.60;;;;;;5071199;28;20048;-70
2023/06/11 02:30:31;;;;;;;7.60;5.25;;;20.30;78.70;;;;;;5054555;28;20051;-70
2023/06/11 02:32:57;;;;;;;7.65;4.93;;;20.30;78.80;;;;;;5056934;28;20044;-70
2023/06/11 02:35:22;;;;;;;7.68;5.20;;;20.30;78.90;;;;;;5074998;28;20036;-70
2023/06/11 02:37:48;;;;;;;7.22;5.25;;;20.30;79.10;;;;;;5074944;28;20083;-70
2023/06/11 02:40:13;;;;;;;8.05;4.90;;;20.20;79.10;;;;;;5076147;28;20045;-70
2023/06/11 02:42:39;;;;;;;7.95;5.60;;;20.20;79.10;;;;;;5074748;28;20044;-70
2023/06/11 02:45:06;;;;;;;5.97;4.97;;;20.20;79.40;;;;;;5075089;28;20059;-70
2023/06/11 02:47:31;;;;;;;7.07;4.95;;;20.10;79.30;;;;;;5074708;28;20048;-70
2023/06/11 02:49:57;;;;;;;8.43;5.75;;;20.10;79.50;;;;;;5074680;28;20135;-70
2023/06/11 02:52:22;;;;;;;7.10;5.10;;;20.10;79.50;;;;;;5074578;28;20086;-70
2023/06/11 02:54:48;;;;;;;8.13;5.20;;;20.00;79.60;;;;;;5074880;28;20040;-70
2023/06/11 02:57:14;;;;;;;9.25;5.30;;;20.00;79.70;;;;;;5074797;28;20378;-70
2023/06/11 02:59:40;;;;;;;7.65;5.50;;;20.00;79.80;;;;;;5074765;28;20516;-70
2023/06/11 03:02:05;;;;;;;7.20;5.38;;;19.90;79.90;;;;;;5074434;28;20040;-71
2023/06/11 03:04:31;;;;;;;7.88;5.40;;;19.90;80.10;;;;;;5074337;28;20076;-71
2023/06/11 03:06:56;;;;;;;6.75;5.68;;;19.90;80.30;;;;;;5074505;28;20040;-71
2023/06/11 03:09:24;;;;;;;9.50;5.70;;;19.80;81.10;;;;;;5074395;28;20545;-71
2023/06/11 03:11:53;;;;;;;6.15;5.45;;;19.80;80.40;;;;;;5074271;28;20041;-71
2023/06/11 03:14:20;;;;;;;6.03;5.38;;;19.80;81.30;;;;;;5074281;28;20142;-71
2023/06/11 03:16:46;;;;;;;8.80;5.70;;;19.70;81.40;;;;;;5074205;28;20558;-71
2023/06/11 03:19:12;;;;;;;8.25;5.35;;;19.70;80.80;;;;;;5057732;28;20127;-71
2023/06/11 03:21:38;;;;;;;6.63;5.60;;;19.70;81.00;;;;;;5074094;28;20409;-71
2023/06/11 03:24:04;;;;;;;7.43;5.80;;;19.70;81.00;;;;;;5075892;28;20036;-71
2023/06/11 03:26:29;;;;;;;8.55;5.40;;;19.70;81.10;;;;;;5073988;28;20067;-71
2023/06/11 03:28:55;;;;;;;6.78;5.43;;;19.60;81.20;;;;;;5057580;28;20044;-71
2023/06/11 03:31:21;;;;;;;8.80;5.90;;;19.60;81.40;;;;;;5073896;28;20455;-71
2023/06/11 03:33:46;;;;;;;6.95;5.72;;;19.60;81.60;;;;;;5074129;28;20043;-71
2023/06/11 03:36:12;;;;;;;7.90;5.90;;;19.60;81.70;;;;;;5074114;28;20044;-71
2023/06/11 03:38:38;;;;;;;6.72;5.60;;;19.60;81.80;;;;;;5073825;28;20409;-71
2023/06/11 03:41:03;;;;;;;7.95;6.00;;;19.60;81.90;;;;;;5073766;28;20028;-71
2023/06/11 03:43:29;;;;;;;10.63;6.63;;;19.50;81.90;;;;;;5072870;28;20033;-71
2023/06/11 03:45:55;;;;;;;7.75;5.50;;;19.50;81.90;;;;;;5073854;28;20036;-71
2023/06/11 03:48:21;;;;;;;6.35;5.43;;;19.50;82.10;;;;;;5073615;28;20127;-71
2023/06/11 03:50:46;;;;;;;8.88;6.10;;;19.50;82.50;;;;;;5073552;28;20048;-71
2023/06/11 03:53:13;;;;;;;9.27;6.18;;;19.50;82.50;;;;;;5073491;28;20040;-71
2023/06/11 03:55:39;;;;;;;8.70;6.07;;;19.40;82.40;;;;;;5056858;28;20044;-71
2023/06/11 03:58:04;;;;;;;7.88;5.60;;;19.40;82.40;;;;;;5073684;28;20041;-71
2023/06/11 04:00:32;;;;;;;10.45;6.22;;;19.50;82.50;;;;;;5056721;28;20516;-71
2023/06/11 04:03:00;;;;;;;7.85;6.45;;;19.40;82.60;;;;;;5073260;28;20041;-71
2023/06/11 04:05:26;;;;;;;8.32;6.68;;;19.50;82.70;;;;;;5073281;28;20040;-71
2023/06/11 04:07:51;;;;;;;7.05;6.00;;;19.50;82.80;;;;;;5056623;28;20082;-71
2023/06/11 04:10:17;;;;;;;9.63;6.40;;;19.50;82.80;;;;;;5073193;28;20524;-71
2023/06/11 04:12:42;;;;;;;7.20;6.50;;;19.40;83.00;;;;;;5056746;28;20035;-71
2023/06/11 04:15:09;;;;;;;7.20;6.20;;;19.50;83.30;;;;;;5073119;28;20509;-71
2023/06/11 04:17:34;;;;;;;7.65;6.35;;;19.50;84.10;;;;;;5073376;28;20037;-71
2023/06/11 04:20:00;;;;;;;10.48;6.75;;;19.50;83.50;;;;;;5073050;28;20385;-71
2023/06/11 04:22:26;;;;;;;8.60;6.13;;;19.50;83.60;;;;;;5073177;28;20052;-71
2023/06/11 04:24:53;;;;;;;8.80;6.00;;;19.50;83.60;;;;;;5072964;28;20386;-71
2023/06/11 04:27:20;;;;;;;7.22;5.93;;;19.50;83.70;;;;;;5056189;28;20093;-71
2023/06/11 04:29:46;;;;;;;10.48;6.30;;;19.50;83.80;;;;;;5072848;28;20044;-71
2023/06/11 04:32:16;;;;;;;8.63;6.88;;;19.50;83.90;;;;;;5072705;28;20040;-71
2023/06/11 04:34:43;;;;;;;10.65;6.72;;;19.50;84.10;;;;;;5072724;28;20040;-71
2023/06/11 04:37:09;;;;;;;8.20;6.55;;;19.60;84.30;;;;;;5072695;28;20049;-71
2023/06/11 04:39:35;;;;;;;10.18;6.78;;;19.60;84.50;;;;;;5072573;28;20046;-71
2023/06/11 04:42:02;;;;;;;10.52;6.57;;;19.60;84.50;;;;;;5056161;28;20052;-71
2023/06/11 04:44:28;;;;;;;8.55;6.60;;;19.60;84.50;;;;;;5072785;28;20048;-71
2023/06/11 04:46:57;;;;;;;11.35;7.28;;;19.60;85.20;;;;;;5072600;28;20511;-71
2023/06/11 04:49:23;;;;;;;9.80;6.88;;;19.60;84.60;;;;;;5072660;28;20072;-71
2023/06/11 04:51:52;;;;;;;8.10;6.57;;;19.70;84.80;;;;;;5072361;28;20055;-71
2023/06/11 04:54:21;;;;;;;9.23;6.97;;;19.70;84.80;;;;;;5072620;28;20051;-71
2023/06/11 04:56:47;;;;;;;13.18;7.00;;;19.70;84.80;;;;;;5072193;28;20044;-71
2023/06/11 04:59:13;;;;;;;6.97;6.30;;;19.80;84.90;;;;;;5072276;28;20080;-71
2023/06/11 05:01:46;;;;;;;7.88;7.00;;;19.80;84.90;;;;;;5072437;28;20076;-71
2023/06/11 05:04:15;;;;;;;;;;;19.80;84.90;;;;;;5072569;28;20066;-71
2023/06/11 05:06:44;;;;;;;7.45;6.60;;;19.80;85.00;;;;;;5072068;28;19920;-71
2023/06/11 05:09:12;;;;;;;7.95;6.70;;;19.90;85.00;;;;;;5055461;28;20036;-71
2023/06/11 05:11:37;;;;;;;8.05;7.13;;;19.90;84.80;;;;;;5072010;28;20123;-71
2023/06/11 05:14:03;;;;;;;7.88;6.55;;;20.00;84.70;;;;;;5072107;28;20091;-71
2023/06/11 05:16:28;;;;;;;8.38;6.95;;;20.00;84.70;;;;;;5072010;28;20036;-71
2023/06/11 05:18:54;;;;;;;9.18;7.05;;;20.10;84.60;;;;;;5071971;28;20044;-71
2023/06/11 05:21:20;;;;;;;8.40;7.03;;;20.10;84.60;;;;;;5071895;28;20035;-71
2023/06/11 05:23:45;;;;;;;7.63;6.78;;;20.10;84.40;;;;;;5071950;28;20040;-71
2023/06/11 05:26:14;;;;;;;7.90;6.50;;;20.20;84.60;;;;;;5071931;28;20036;-71
2023/06/11 05:28:40;;;;;;;7.25;6.38;;;20.20;84.70;;;;;;5055198;28;20047;-71
2023/06/11 05:31:06;;;;;;;8.10;6.78;;;20.20;84.50;;;;;;5055392;28;20041;-71
2023/06/11 05:33:32;;;;;;;7.88;6.75;;;20.30;84.40;;;;;;5071835;28;20049;-71
2023/06/11 05:35:58;;;;;;;9.80;7.00;;;20.40;84.30;;;;;;5072108;28;20047;-71
2023/06/11 05:38:27;;;;;;;9.18;7.10;;;20.40;84.10;;;;;;5071793;28;20429;-71
2023/06/11 05:40:52;;;;;;;10.90;7.25;;;20.50;84.20;;;;;;5071759;28;20049;-71
2023/06/11 05:43:18;;;;;;;11.50;6.75;;;20.50;84.10;;;;;;5055062;28;20051;-71
2023/06/11 05:45:50;;;;;;;9.88;7.22;;;20.60;84.10;;;;;;5071989;28;20040;-71
2023/06/11 05:48:16;;;;;;;10.23;6.90;;;20.60;84.10;;;;;;5071629;28;20564;-71
2023/06/11 05:50:42;;;;;;;11.60;6.32;;;20.60;83.90;;;;;;5071612;28;20493;-71
2023/06/11 05:53:09;;;;;;;10.55;7.50;;;20.70;84.00;;;;;;5071555;28;20121;-71
2023/06/11 05:55:35;;;;;;;8.88;6.97;;;20.70;83.60;;;;;;5071616;28;20033;-71
2023/06/11 05:58:01;;;;;;;7.80;6.50;;;20.80;83.40;;;;;;5071621;28;20044;-71
2023/06/11 06:00:27;;;;;;;7.95;7.15;;;20.80;83.20;;;;;;5071575;28;20135;-71
2023/06/11 06:02:53;;;;;;;9.65;6.60;;;20.90;83.20;;;;;;5054747;28;20068;-71
2023/06/11 06:05:19;;;;;;;8.70;7.13;;;20.90;83.20;;;;;;5071698;28;20086;-71
2023/06/11 06:07:44;;;;;;;9.05;6.55;;;21.00;82.90;;;;;;5073414;28;20405;-71
2023/06/11 06:10:10;;;;;;;6.93;6.20;;;21.10;82.90;;;;;;5075511;28;20052;-71
2023/06/11 06:12:36;;;;;;;8.55;6.97;;;21.10;82.60;;;;;;5075671;28;20032;-71
2023/06/11 06:15:01;;;;;;;9.80;7.28;;;21.20;82.40;;;;;;5075401;28;20404;-71
2023/06/11 06:17:27;;;;;;;10.15;6.53;;;21.20;82.30;;;;;;5075345;28;20109;-71
2023/06/11 06:19:52;;;;;;;7.70;6.90;;;21.30;82.50;;;;;;5075584;28;20135;-71
2023/06/11 06:22:18;;;;;;;10.95;7.13;;;21.40;82.20;;;;;;5058555;28;20048;-71
2023/06/11 06:24:44;;;;;;;7.47;6.78;;;21.40;82.20;;;;;;5058580;28;20072;-71
2023/06/11 06:27:10;;;;;;;7.22;6.47;;;21.50;81.80;;;;;;5075086;28;20558;-71
2023/06/11 06:29:38;;;;;;;10.90;6.63;;;21.60;81.80;;;;;;5075384;28;20120;-71
2023/06/11 06:32:08;;;;;;;7.50;6.80;;;21.70;81.30;;;;;;5058361;28;20048;-71
2023/06/11 06:34:34;;;;;;;10.32;7.13;;;21.80;81.30;;;;;;5075005;28;20431;-71
2023/06/11 06:37:00;;;;;;;9.35;6.85;;;21.80;80.70;;;;;;5074955;28;20444;-71
2023/06/11 06:39:26;;;;;;;8.20;6.38;;;21.90;80.50;;;;;;5074906;28;20174;-71
2023/06/11 06:41:52;;;;;;;11.93;6.40;;;22.00;80.60;;;;;;5074856;28;20131;-71
2023/06/11 06:44:17;;;;;;;8.65;7.35;;;22.10;80.80;;;;;;5074850;28;20086;-71
2023/06/11 06:46:43;;;;;;;9.95;6.78;;;22.20;80.40;;;;;;5074696;28;20052;-71
2023/06/11 06:49:09;;;;;;;8.35;6.47;;;22.20;80.00;;;;;;5074757;28;20123;-71
2023/06/11 06:51:36;;;;;;;17.27;6.75;;;22.30;79.40;;;;;;5074912;28;20028;-71
2023/06/11 06:54:02;;;;;;;10.00;6.55;;;22.40;79.40;;;;;;5074649;28;20041;-71
2023/06/11 06:56:28;;;;;;;8.70;6.22;;;22.40;79.40;;;;;;5074613;28;20037;-71
2023/06/11 06:58:53;;;;;;;9.05;6.68;;;22.60;79.30;;;;;;5074487;28;20101;-71
2023/06/11 07:01:19;;;;;;;7.80;6.65;;;22.70;78.50;;;;;;5074456;28;20040;-71
2023/06/11 07:03:45;;;;;;;10.90;6.32;;;22.70;77.80;;;;;;5074354;28;20028;-71
2023/06/11 07:06:10;;;;;;;8.73;6.85;;;22.80;77.60;;;;;;5074429;28;20086;-71
2023/06/11 07:08:38;;;;;;;6.95;6.25;;;22.90;77.80;;;;;;5074336;28;20076;-71
2023/06/11 07:11:04;;;;;;;8.23;6.63;;;22.90;77.70;;;;;;5074357;28;20511;-71
2023/06/11 07:13:30;;;;;;;9.65;6.32;;;23.00;77.30;;;;;;5074208;28;20036;-71
2023/06/11 07:15:55;;;;;;;7.03;6.03;;;23.10;77.70;;;;;;5074259;28;20040;-71
2023/06/11 07:18:21;;;;;;;8.95;6.30;;;23.30;77.20;;;;;;5073178;28;20076;-71
2023/06/11 07:20:48;;;;;;;9.18;6.25;;;23.30;77.00;;;;;;5073896;28;20161;-71
2023/06/11 07:23:13;;;;;;;8.88;5.95;;;23.40;76.70;;;;;;5074332;28;20516;-71
2023/06/11 07:25:43;;;;;;;11.43;6.50;;;23.50;76.30;;;;;;5074032;28;20040;-71
2023/06/11 07:28:08;;;;;;;8.70;6.43;;;23.60;76.00;;;;;;5073970;28;20041;-71
2023/06/11 07:30:34;;;;;;;7.20;6.38;;;23.70;75.40;;;;;;5074246;28;20041;-71
2023/06/11 07:33:00;;;;;;;7.75;6.53;;;23.80;75.90;;;;;;5073876;28;20033;-71
2023/06/11 07:35:27;;;;;;;8.90;6.50;;;23.90;75.80;;;;;;5073915;28;20044;-71
2023/06/11 07:37:53;;;;;;;8.70;6.43;;;24.10;75.50;;;;;;5057111;28;20123;-71
2023/06/11 07:40:20;;;;;;;7.50;5.95;;;24.20;74.90;;;;;;5074102;28;20117;-71
2023/06/11 07:42:47;;;;;;;9.18;6.20;;;24.30;74.60;;;;;;5073662;28;20413;-71
2023/06/11 07:45:13;;;;;;;9.57;6.13;;;24.40;74.20;;;;;;5073956;28;20041;-71
2023/06/11 07:47:40;;;;;;;9.50;6.07;;;24.50;74.10;;;;;;5073635;28;20036;-71
2023/06/11 07:50:07;;;;;;;7.90;6.18;;;24.60;73.40;;;;;;5057197;28;20029;-71
2023/06/11 07:52:33;;;;;;;6.85;6.03;;;24.70;73.50;;;;;;5073755;28;20043;-71
2023/06/11 07:54:59;;;;;;;7.03;5.50;;;24.80;73.10;;;;;;5073524;28;20422;-71
2023/06/11 07:57:25;;;;;;;8.73;6.07;;;24.90;72.20;;;;;;5073506;28;20040;-71
2023/06/11 07:59:51;;;;;;;9.15;5.45;;;25.00;72.20;;;;;;5056808;28;20041;-71
2023/06/11 08:02:18;;;;;;;10.18;5.72;;;25.10;71.60;;;;;;5056650;28;20044;-71
2023/06/11 08:04:43;;;;;;;6.70;5.85;;;25.20;70.70;;;;;;5073279;28;20036;-71
2023/06/11 08:07:10;;;;;;;7.78;5.78;;;25.30;70.70;;;;;;5073431;28;20119;-71
2023/06/11 08:09:36;;;;;;;7.47;6.10;;;25.40;71.50;;;;;;5073243;28;20083;-71
2023/06/11 08:12:06;;;;;;;7.35;4.90;;;25.60;71.00;;;;;;5073107;28;20052;-71
2023/06/11 08:14:35;;;;;;;8.15;6.00;;;25.70;69.80;;;;;;5073391;28;20451;-71
2023/06/11 08:17:02;;;;;;;7.47;5.30;;;25.80;69.10;;;;;;5073295;28;20489;-71
2023/06/11 08:19:27;;;;;;;9.27;5.78;;;26.00;69.10;;;;;;5073270;28;20044;-71
2023/06/11 08:22:01;;;;;;;7.82;5.63;;;26.10;69.00;;;;;;5073177;28;20512;-71
2023/06/11 08:24:26;;;;;;;9.32;5.32;;;26.20;68.20;;;;;;5073229;28;20044;-71
2023/06/11 08:26:52;;;;;;;7.95;5.22;;;26.30;68.00;;;;;;5072801;28;20038;-71
2023/06/11 08:29:18;;;;;;;8.55;5.63;;;26.40;67.00;;;;;;5072899;28;20033;-71
2023/06/11 08:31:43;;;;;;;7.15;5.78;;;26.50;67.20;;;;;;5055605;28;20045;-71
2023/06/11 08:34:09;;;;;;;6.53;5.13;;;26.70;66.30;;;;;;5072759;28;20039;-71
2023/06/11 08:36:36;;;;;;;8.70;5.90;;;26.80;65.80;;;;;;5072650;28;20036;-71
2023/06/11 08:39:02;;;;;;;9.32;5.20;;;26.90;66.00;;;;;;5072667;28;20044;-71
2023/06/11 08:41:31;;;;;;;7.15;5.20;;;27.00;66.40;;;;;;5072525;28;20049;-71
2023/06/11 08:43:58;;;;;;;8.82;5.53;;;27.10;66.40;;;;;;5072571;28;20047;-71
2023/06/11 08:46:24;;;;;;;8.57;5.45;;;27.30;65.80;;;;;;5072637;28;20076;-71
2023/06/11 08:49:06;;;;;;;8.32;5.03;;;27.40;65.50;;;;;;5055832;28;20036;-71
2023/06/11 08:51:38;;;;;;;7.93;5.65;;;27.60;64.90;;;;;;5073170;28;20044;-71
2023/06/11 08:54:06;;;;;;;10.30;5.35;;;27.70;63.50;;;;;;5072393;28;20033;-71
2023/06/11 08:56:33;;;;;;;9.85;5.72;;;27.70;63.70;;;;;;5072272;28;20047;-71
2023/06/11 08:59:00;;;;;;;6.97;5.55;;;27.80;63.30;;;;;;5072262;28;20523;-71
2023/06/11 09:01:26;;;;;;;7.93;5.55;;;28.00;63.30;;;;;;5072172;28;20493;-71
2023/06/11 09:03:51;;;;;;;8.85;5.25;;;28.10;63.00;;;;;;5072068;28;20035;-71
2023/06/11 09:06:18;;;;;;;9.23;5.03;;;28.20;63.20;;;;;;5072179;28;20040;-71
2023/06/11 09:09:03;;;;;;;6.05;5.40;;;28.30;63.50;;;;;;5072384;28;20064;-71
2023/06/11 09:11:36;;;;;;;6.60;5.10;;;28.40;62.50;;;;;;5055358;28;20044;-71
2023/06/11 09:14:03;;;;;;;6.55;5.25;;;28.60;62.70;;;;;;5072351;28;20180;-71
2023/06/11 09:16:36;;;;;;;5.82;4.90;;;28.60;62.30;;;;;;5055663;28;20051;-71
2023/06/11 09:19:02;;;;;;;6.88;5.43;;;28.70;61.40;;;;;;5072294;28;20079;-71
2023/06/11 09:21:27;;;;;;;9.07;5.30;;;28.80;61.00;;;;;;5071895;28;20133;-71
2023/06/11 09:23:53;;;;;;;7.38;5.57;;;28.90;60.70;;;;;;5072223;28;20032;-71
2023/06/11 09:26:19;;;;;;;7.68;4.75;;;29.00;60.50;;;;;;5055282;28;20493;-71
2023/06/11 09:28:50;;;;;;;9.07;5.07;;;29.10;60.30;;;;;;5071782;28;20048;-71
2023/06/11 09:31:18;;;;;;;7.07;4.97;;;29.20;60.10;;;;;;5071832;28;20037;-71
2023/06/11 09:33:44;;;;;;;8.50;5.10;;;29.40;59.60;;;;;;5071864;28;20044;-71
2023/06/11 09:36:10;;;;;;;7.38;5.07;;;29.50;58.80;;;;;;5071840;28;20036;-71
2023/06/11 09:38:35;;;;;;;8.38;5.30;;;29.60;58.90;;;;;;5071946;28;20037;-71
2023/06/11 09:41:06;;;;;;;6.07;4.90;;;29.70;58.60;;;;;;5071796;28;20051;-71
2023/06/11 09:43:33;;;;;;;6.85;5.03;;;29.90;58.00;;;;;;5071548;28;20073;-71
2023/06/11 09:46:01;;;;;;;6.35;4.38;;;29.90;57.00;;;;;;5055029;28;20044;-71
2023/06/11 09:48:28;;;;;;;7.30;4.35;;;30.10;57.60;;;;;;5071595;28;20044;-71
2023/06/11 09:50:54;;;;;;;9.57;4.57;;;30.20;58.10;;;;;;5072396;28;20067;-71
2023/06/11 09:53:22;;;;;;;5.80;4.88;;;30.30;57.40;;;;;;5071660;28;20075;-71
2023/06/11 09:55:50;;;;;;;8.07;4.70;;;30.40;57.30;;;;;;5071911;28;20397;-71
2023/06/11 09:58:22;;;;;;;8.23;4.38;;;30.40;55.60;;;;;;5071850;28;20036;-71
2023/06/11 10:00:58;;;;;;;6.13;4.28;;;30.50;56.30;;;;;;5071607;28;20115;-71
2023/06/11 10:03:24;;;;;;;6.03;4.60;;;30.60;56.60;;;;;;5071419;28;20623;-71
2023/06/11 10:05:50;;;;;;;6.53;4.35;;;30.70;55.60;;;;;;5072377;28;20067;-71
2023/06/11 10:08:22;;;;;;;5.75;4.28;;;30.80;54.80;;;;;;5071480;28;20047;-71
2023/06/11 10:10:53;;;;;;;9.38;4.93;;;30.90;53.90;;;;;;5071558;28;20041;-71
2023/06/11 10:13:34;;;;;;;8.15;4.72;;;31.00;54.60;;;;;;5071704;28;20528;-71
2023/06/11 10:16:01;;;;;;;5.88;4.20;;;31.10;53.80;;;;;;5071405;28;20050;-71
2023/06/11 10:18:29;;;;;;;7.55;4.18;;;31.30;53.70;;;;;;5071657;28;20048;-71
2023/06/11 10:20:58;;;;;;;8.00;4.78;;;31.40;53.90;;;;;;5071666;28;20053;-71
2023/06/11 10:23:35;;;;;;;5.28;4.45;;;31.50;52.80;;;;;;5071293;28;20564;-71
2023/06/11 10:26:04;;;;;;;5.05;4.50;;;31.60;51.50;;;;;;5071389;28;20055;-71
2023/06/11 10:28:48;;;;;;;6.93;4.28;;;31.60;52.30;;;;;;5071263;28;20041;-71
2023/06/11 10:31:25;;;;;;;6.97;3.90;;;31.70;51.60;;;;;;5071392;28;20048;-71
2023/06/11 10:33:50;;;;;;;6.18;4.32;;;31.90;51.60;;;;;;5071328;28;20041;-71
2023/06/11 10:36:26;;;;;;;6.22;4.25;;;31.90;51.20;;;;;;5071284;28;20040;-71
2023/06/11 10:39:03;;;;;;;9.18;3.95;;;32.10;51.50;;;;;;5054733;28;20457;-71
2023/06/11 10:41:29;;;;;;;5.63;4.03;;;32.10;50.10;;;;;;5071182;28;20041;-71
2023/06/11 10:43:57;;;;;;;7.53;4.50;;;32.20;50.80;;;;;;5071386;28;20044;-71
2023/06/11 10:46:23;;;;;;;4.78;4.00;;;32.20;50.20;;;;;;5071437;28;20091;-71
2023/06/11 10:48:51;;;;;;;6.00;3.78;;;32.30;49.80;;;;;;5071068;28;20098;-71
2023/06/11 10:51:17;;;;;;;5.25;3.80;;;32.40;50.30;;;;;;5054347;28;20040;-71
2023/06/11 10:53:43;;;;;;;6.82;3.85;;;32.50;49.60;;;;;;5072826;28;20040;-71
2023/06/11 10:56:12;;;;;;;4.72;4.10;;;32.50;49.40;;;;;;5074919;28;20036;-71
2023/06/11 10:58:38;;;;;;;6.65;4.10;;;32.50;48.00;;;;;;5074595;28;20052;-71
2023/06/11 11:01:07;;;;;;;5.30;4.07;;;32.50;48.10;;;;;;5057847;28;20047;-71
2023/06/11 11:03:34;;;;;;;5.72;3.78;;;32.70;47.40;;;;;;5074348;28;20036;-71
2023/06/11 11:06:00;;;;;;;5.93;3.60;;;32.80;47.10;;;;;;5074710;28;20505;-71
2023/06/11 11:08:26;;;;;;;5.78;4.25;;;32.90;46.60;;;;;;5057702;28;20044;-71
2023/06/11 11:10:54;;;;;;;7.15;3.92;;;32.90;45.60;;;;;;5057691;28;20040;-71
2023/06/11 11:13:20;;;;;;;5.13;3.97;;;32.90;45.10;;;;;;5074310;28;20098;-71
2023/06/11 11:15:46;;;;;;;5.07;3.72;;;33.00;47.00;;;;;;5074338;28;20079;-71
2023/06/11 11:18:12;;;;;;;7.38;4.20;;;33.10;45.50;;;;;;5057508;28;20040;-71
2023/06/11 11:20:38;;;;;;;7.63;4.15;;;33.20;44.80;;;;;;5074213;28;20101;-71
2023/06/11 11:23:06;;;;;;;4.82;3.90;;;33.20;44.70;;;;;;5074091;28;20039;-71
2023/06/11 11:25:32;;;;;;;9.52;4.38;;;33.40;44.80;;;;;;5074073;28;20043;-71
2023/06/11 11:27:58;;;;;;;4.90;3.72;;;33.60;45.50;;;;;;5074048;28;20513;-71
2023/06/11 11:30:28;;;;;;;5.57;4.30;;;33.60;44.90;;;;;;5074230;28;20032;-71
2023/06/11 11:32:54;;;;;;;7.30;4.05;;;33.70;44.80;;;;;;5073929;28;20119;-71
2023/06/11 11:35:22;;;;;;;8.45;3.55;;;33.80;44.60;;;;;;5073933;28;20119;-71
2023/06/11 11:37:50;;;;;;;4.88;3.83;;;33.90;43.60;;;;;;5073899;28;20047;-71
2023/06/11 11:40:20;;;;;;;9.77;3.78;;;34.00;43.20;;;;;;5073833;28;20048;-71
2023/06/11 11:42:57;;;;;;;5.28;4.15;;;34.10;42.90;;;;;;5073748;28;20048;-71
2023/06/11 11:45:33;;;;;;;6.20;4.00;;;34.30;42.20;;;;;;5073789;28;20040;-71
2023/06/11 11:48:00;;;;;;;6.30;3.72;;;34.30;42.30;;;;;;5073622;28;20079;-71
2023/06/11 11:50:30;;;;;;;6.43;4.18;;;34.20;42.40;;;;;;5073959;28;20482;-71
2023/06/11 11:53:05;;;;;;;4.68;4.05;;;34.20;42.20;;;;;;5073532;28;20040;-71
2023/06/11 11:55:36;;;;;;;6.47;3.75;;;34.00;41.80;;;;;;5073600;28;20425;-71
2023/06/11 11:58:04;;;;;;;7.57;4.07;;;34.10;41.40;;;;;;5073572;28;20040;-71
2023/06/11 12:00:30;;;;;;;7.78;4.30;;;34.00;41.10;;;;;;5056833;28;20409;-71
2023/06/11 12:02:56;;;;;;;7.78;4.40;;;34.20;42.50;;;;;;5073327;28;20041;-71
2023/06/11 12:05:27;;;;;;;5.88;4.13;;;34.30;42.40;;;;;;5072537;28;20041;-71
2023/06/11 12:07:53;;;;;;;5.30;4.00;;;34.40;42.00;;;;;;5073430;28;20417;-71
2023/06/11 12:10:19;;;;;;;6.95;4.00;;;34.50;42.00;;;;;;5073243;28;20041;-71
2023/06/11 12:12:44;;;;;;;7.05;3.85;;;34.60;41.50;;;;;;5073144;28;20072;-71
2023/06/11 12:15:10;;;;;;;6.47;3.75;;;34.80;41.30;;;;;;5073186;28;20043;-71
2023/06/11 12:17:39;;;;;;;8.00;4.10;;;34.80;40.90;;;;;;5073122;28;20131;-71
2023/06/11 12:20:05;;;;;;;6.28;4.05;;;34.70;40.40;;;;;;5056613;28;20413;-71
2023/06/11 12:22:31;;;;;;;5.60;3.90;;;34.80;40.90;;;;;;5072923;28;20445;-71
2023/06/11 12:24:57;;;;;;;6.85;4.03;;;34.80;40.80;;;;;;5072948;28;20533;-71
2023/06/11 12:27:23;;;;;;;10.23;4.50;;;35.00;40.50;;;;;;5072815;28;20048;-71
2023/06/11 12:29:53;;;;;;;7.13;4.05;;;34.90;40.40;;;;;;5072880;28;20041;-71
2023/06/11 12:32:21;;;;;;;9.68;4.32;;;34.90;40.10;;;;;;5072759;28;20164;-71
2023/06/11 12:34:50;;;;;;;7.97;4.30;;;35.00;40.80;;;;;;5073055;28;20052;-71
2023/06/11 12:37:16;;;;;;;4.88;3.97;;;35.10;39.50;;;;;;5072667;28;20412;-71
2023/06/11 12:39:46;;;;;;;9.55;4.53;;;35.10;40.00;;;;;;5072910;28;20036;-71
2023/06/11 12:42:14;;;;;;;6.00;4.43;;;35.00;40.00;;;;;;5072788;28;20409;-71
2023/06/11 12:44:41;;;;;;;6.40;4.15;;;35.10;39.90;;;;;;5072509;28;20123;-71
2023/06/11 12:47:07;;;;;;;6.47;4.65;;;35.10;39.90;;;;;;5072443;28;20047;-71